createdAt,value
2019-01-21T00:01:40.513Z,99.90
2019-01-21T00:04:12.652Z,99.90
2019-01-21T00:06:44.386Z,99.90
2019-01-21T00:09:16.088Z,99.90
2019-01-21T00:11:47.838Z,99.90
2019-01-21T00:14:19.517Z,99.90
2019-01-21T00:16:51.840Z,99.90
2019-01-21T00:19:23.540Z,99.90
2019-01-21T00:21:55.211Z,99.90
2019-01-21T00:24:26.910Z,99.90
2019-01-21T00:26:58.585Z,99.90
2019-01-21T00:29:30.285Z,99.90
2019-01-21T00:32:01.945Z,99.90
2019-01-21T00:34:33.706Z,99.90
2019-01-21T00:37:05.548Z,99.90
2019-01-21T00:39:37.337Z,99.90
2019-01-21T00:42:09.083Z,99.90
2019-01-21T00:44:40.858Z,99.90
2019-01-21T00:47:12.703Z,99.90
2019-01-21T00:49:44.431Z,99.90
2019-01-21T00:52:16.106Z,99.90
2019-01-21T00:54:48.191Z,99.90
2019-01-21T00:57:19.917Z,99.90
2019-01-21T00:59:51.749Z,99.90
2019-01-21T01:02:36.062Z,99.90
2019-01-21T01:05:09.355Z,99.90
2019-01-21T01:07:41.045Z,99.90
2019-01-21T01:10:13.459Z,99.90
2019-01-21T01:12:45.165Z,99.90
2019-01-21T01:15:17.087Z,99.90
2019-01-21T01:17:48.844Z,99.90
2019-01-21T01:20:21.547Z,99.90
2019-01-21T01:22:53.266Z,99.90
2019-01-21T01:25:25.039Z,99.90
2019-01-21T01:27:56.717Z,99.90
2019-01-21T01:30:28.404Z,99.90
2019-01-21T01:33:00.088Z,99.90
2019-01-21T01:35:31.850Z,99.90
2019-01-21T01:38:03.632Z,99.90
2019-01-21T01:40:35.337Z,99.90
2019-01-21T01:43:07.010Z,99.90
2019-01-21T01:45:39.172Z,99.90
2019-01-21T01:48:10.908Z,99.90
2019-01-21T01:50:42.680Z,99.90
2019-01-21T01:53:14.732Z,99.90
2019-01-21T01:55:46.563Z,99.90
2019-01-21T01:58:18.314Z,99.90
2019-01-21T02:00:50.143Z,99.90
2019-01-21T02:03:21.818Z,99.90
2019-01-21T02:05:53.615Z,99.90
2019-01-21T02:08:26.871Z,99.90
2019-01-21T02:10:58.654Z,99.90
2019-01-21T02:13:30.420Z,99.90
2019-01-21T02:16:02.180Z,99.90
2019-01-21T02:18:33.948Z,99.90
2019-01-21T02:21:06.016Z,99.90
2019-01-21T02:23:38.501Z,99.90
2019-01-21T02:26:20.455Z,99.90
2019-01-21T02:29:02.272Z,99.90
2019-01-21T02:32:05.742Z,99.90
2019-01-21T02:35:13.287Z,99.90
2019-01-21T02:38:14.085Z,99.90
2019-01-21T02:41:02.806Z,99.90
2019-01-21T02:44:14.603Z,99.90
2019-01-21T02:47:49.136Z,99.90
2019-01-21T02:50:51.152Z,99.90
2019-01-21T02:53:46.690Z,99.90
2019-01-21T02:57:05.783Z,99.90
2019-01-21T03:00:15.764Z,99.90
2019-01-21T03:03:09.778Z,99.90
2019-01-21T03:06:05.358Z,99.90
2019-01-21T03:09:08.592Z,99.90
2019-01-21T03:12:16.940Z,99.90
2019-01-21T03:15:16.522Z,99.90
2019-01-21T03:18:44.477Z,99.90
2019-01-21T03:22:00.372Z,99.90
2019-01-21T03:25:21.586Z,99.90
2019-01-21T03:28:25.578Z,99.90
2019-01-21T03:31:34.188Z,99.90
2019-01-21T03:35:02.411Z,99.90
2019-01-21T03:38:10.256Z,99.90
2019-01-21T03:41:19.683Z,99.90
2019-01-21T03:44:27.805Z,99.90
2019-01-21T03:47:15.309Z,99.90
2019-01-21T03:50:10.675Z,99.90
2019-01-21T03:52:58.942Z,99.90
2019-01-21T03:55:31.824Z,99.90
2019-01-21T03:58:56.885Z,99.90
2019-01-21T04:02:04.190Z,99.90
2019-01-21T04:04:58.473Z,99.90
2019-01-21T04:08:01.429Z,99.90
2019-01-21T04:11:09.493Z,99.90
2019-01-21T04:14:12.294Z,99.90
2019-01-21T04:17:25.242Z,99.90
2019-01-21T04:20:29.307Z,99.90
2019-01-21T04:23:40.285Z,99.90
2019-01-21T04:26:47.242Z,99.90
2019-01-21T04:29:35.083Z,99.90
2019-01-21T04:32:21.586Z,99.90
2019-01-21T04:35:33.298Z,99.90
2019-01-21T04:38:29.759Z,99.90
2019-01-21T04:41:26.638Z,99.90
2019-01-21T04:44:50.618Z,99.90
2019-01-21T04:47:49.412Z,99.90
2019-01-21T04:51:08.596Z,99.90
2019-01-21T04:54:21.654Z,99.90
2019-01-21T04:57:26.246Z,99.90
2019-01-21T05:00:43.246Z,99.90
2019-01-21T05:03:43.695Z,99.90
2019-01-21T05:06:57.042Z,99.90
2019-01-21T05:10:09.032Z,99.90
2019-01-21T05:13:33.035Z,99.90
2019-01-21T05:16:23.486Z,99.90
2019-01-21T05:19:27.247Z,99.90
2019-01-21T05:22:39.820Z,99.90
2019-01-21T05:26:08.363Z,99.90
2019-01-21T05:29:24.359Z,99.90
2019-01-21T05:32:42.913Z,99.90
2019-01-21T05:36:02.749Z,99.90
2019-01-21T05:38:57.434Z,99.90
2019-01-21T05:41:59.778Z,99.90
2019-01-21T05:45:15.621Z,99.90
2019-01-21T05:48:33.709Z,99.90
2019-01-21T05:51:45.719Z,99.90
2019-01-21T05:55:16.677Z,99.90
2019-01-21T05:58:29.355Z,99.90
2019-01-21T06:01:54.419Z,99.90
2019-01-21T06:05:13.124Z,99.90
2019-01-21T06:08:41.152Z,99.90
2019-01-21T06:11:29.603Z,99.90
2019-01-21T06:14:27.803Z,99.90
2019-01-21T06:17:40.888Z,99.90
2019-01-21T06:20:47.553Z,99.90
2019-01-21T06:24:03.991Z,99.90
2019-01-21T06:27:14.607Z,99.90
2019-01-21T06:30:15.310Z,99.90
2019-01-21T06:33:28.126Z,99.90
2019-01-21T06:36:24.948Z,99.90
2019-01-21T06:39:29.492Z,99.90
2019-01-21T06:42:24.511Z,99.90
2019-01-21T06:45:37.436Z,99.90
2019-01-21T06:48:46.345Z,99.90
2019-01-21T06:52:01.188Z,99.90
2019-01-21T06:55:02.869Z,99.90
2019-01-21T06:57:48.558Z,99.90
2019-01-21T07:00:27.232Z,99.90
2019-01-21T07:03:13.495Z,99.90
2019-01-21T07:06:15.406Z,99.90
2019-01-21T07:09:40.476Z,99.90
2019-01-21T07:12:35.691Z,99.90
2019-01-21T07:15:49.228Z,99.90
2019-01-21T07:19:04.038Z,99.90
2019-01-21T07:22:03.683Z,99.90
2019-01-21T07:24:55.810Z,99.90
2019-01-21T07:28:00.115Z,99.90
2019-01-21T07:30:53.675Z,99.90
2019-01-21T07:34:02.305Z,99.90
2019-01-21T07:37:11.193Z,99.90
2019-01-21T07:40:14.167Z,99.90
2019-01-21T07:43:11.582Z,99.90
2019-01-21T07:46:12.812Z,99.90
2019-01-21T07:49:36.997Z,99.90
2019-01-21T07:52:54.037Z,99.90
2019-01-21T07:55:49.859Z,99.90
2019-01-21T07:59:30.155Z,99.90
2019-01-21T08:02:28.673Z,99.90
2019-01-21T08:05:35.476Z,99.90
2019-01-21T08:08:22.330Z,99.90
2019-01-21T08:11:14.493Z,99.90
2019-01-21T08:14:24.871Z,99.90
2019-01-21T08:17:09.988Z,99.90
2019-01-21T08:20:09.719Z,99.90
2019-01-21T08:23:18.564Z,99.90
2019-01-21T08:26:30.528Z,99.90
2019-01-21T08:29:42.210Z,99.90
2019-01-21T08:33:04.220Z,99.90
2019-01-21T08:36:23.364Z,99.90
2019-01-21T08:39:35.350Z,99.90
2019-01-21T08:42:42.765Z,99.90
2019-01-21T08:45:37.571Z,99.90
2019-01-21T08:48:43.094Z,99.90
2019-01-21T08:51:49.400Z,99.90
2019-01-21T08:54:56.453Z,99.90
2019-01-21T08:58:15.512Z,99.90
2019-01-21T09:01:32.045Z,99.90
2019-01-21T09:04:30.614Z,99.90
2019-01-21T09:07:43.367Z,99.90
2019-01-21T09:10:37.433Z,99.90
2019-01-21T09:14:05.654Z,99.90
2019-01-21T09:17:01.737Z,99.90
2019-01-21T09:20:24.007Z,99.90
2019-01-21T09:23:18.374Z,99.90
2019-01-21T09:26:38.186Z,99.90
2019-01-21T09:29:38.899Z,99.90
2019-01-21T09:32:40.057Z,99.90
2019-01-21T09:35:35.641Z,99.90
2019-01-21T09:38:29.434Z,99.90
2019-01-21T09:41:54.735Z,99.90
2019-01-21T09:44:54.994Z,99.90
2019-01-21T09:47:25.068Z,99.90
2019-01-21T09:49:56.816Z,99.90
2019-01-21T09:52:29.540Z,99.90
2019-01-21T09:55:01.757Z,99.90
2019-01-21T09:57:34.456Z,99.90
2019-01-21T10:00:12.317Z,99.90
2019-01-21T10:02:49.002Z,99.90
2019-01-21T10:05:20.731Z,99.90
2019-01-21T10:08:17.838Z,99.90
2019-01-21T10:11:34.560Z,99.90
2019-01-21T10:14:31.710Z,99.90
2019-01-21T10:17:20.263Z,99.90
2019-01-21T10:20:27.340Z,99.90
2019-01-21T10:23:10.483Z,99.90
2019-01-21T10:26:29.935Z,99.90
2019-01-21T10:29:12.351Z,99.40
2019-01-21T10:32:08.262Z,99.10
2019-01-21T10:35:30.362Z,98.70
2019-01-21T10:39:17.070Z,98.70
2019-01-21T10:42:41.925Z,98.10
2019-01-21T10:46:06.823Z,96.60
2019-01-21T10:48:54.965Z,97.00
2019-01-21T10:52:18.758Z,97.00
2019-01-21T10:55:00.819Z,95.90
2019-01-21T10:57:51.804Z,95.80
2019-01-21T11:00:54.709Z,94.50
2019-01-21T11:04:10.246Z,94.30
2019-01-21T11:07:26.941Z,96.80
2019-01-21T11:10:27.611Z,94.60
2019-01-21T11:13:35.031Z,93.50
2019-01-21T11:16:50.778Z,92.60
2019-01-21T11:20:08.339Z,92.00
2019-01-21T11:22:58.473Z,92.30
2019-01-21T11:26:06.885Z,92.60
2019-01-21T11:29:12.243Z,92.10
2019-01-21T11:32:21.771Z,93.30
2019-01-21T11:35:51.642Z,94.20
2019-01-21T11:38:39.652Z,92.90
2019-01-21T11:41:40.415Z,92.80
2019-01-21T11:45:03.387Z,92.40
2019-01-21T11:48:02.185Z,95.40
2019-01-21T11:51:03.000Z,94.00
2019-01-21T11:54:07.082Z,94.40
2019-01-21T11:57:00.968Z,98.00
2019-01-21T12:00:02.861Z,95.30
2019-01-21T12:02:48.072Z,95.70
2019-01-21T12:05:57.985Z,95.80
2019-01-21T12:09:07.178Z,95.20
2019-01-21T12:12:20.564Z,95.80
2019-01-21T12:15:39.824Z,96.40
2019-01-21T12:18:32.997Z,95.20
2019-01-21T12:21:42.518Z,94.40
2019-01-21T12:24:41.718Z,95.00
2019-01-21T12:27:45.898Z,92.80
2019-01-21T12:30:30.560Z,94.30
2019-01-21T12:33:38.949Z,93.90
2019-01-21T12:36:58.941Z,94.10
2019-01-21T12:40:00.933Z,97.40
2019-01-21T12:43:07.917Z,95.50
2019-01-21T12:46:32.039Z,97.70
2019-01-21T12:49:54.267Z,96.40
2019-01-21T12:52:57.841Z,93.90
2019-01-21T12:56:10.281Z,93.00
2019-01-21T12:58:53.087Z,93.20
2019-01-21T13:02:00.794Z,93.90
2019-01-21T13:05:10.339Z,94.70
2019-01-21T13:08:10.027Z,95.50
2019-01-21T13:11:16.392Z,96.00
2019-01-21T13:14:41.683Z,96.60
2019-01-21T13:18:09.760Z,96.00
2019-01-21T13:21:06.420Z,96.80
2019-01-21T13:24:03.265Z,94.60
2019-01-21T13:27:08.351Z,94.50
2019-01-21T13:29:55.027Z,98.30
2019-01-21T13:33:03.335Z,97.60
2019-01-21T13:36:10.730Z,96.50
2019-01-21T13:39:37.702Z,97.00
2019-01-21T13:42:25.166Z,97.50
2019-01-21T13:45:46.482Z,96.60
2019-01-21T13:49:07.654Z,96.10
2019-01-21T13:52:22.716Z,96.60
2019-01-21T13:55:20.054Z,96.70
2019-01-21T13:58:20.060Z,96.60
2019-01-21T14:01:29.818Z,97.90
2019-01-21T14:04:48.666Z,97.90
2019-01-21T14:07:51.844Z,99.70
2019-01-21T14:11:04.546Z,98.10
2019-01-21T14:14:12.238Z,97.80
2019-01-21T14:16:59.378Z,98.80
2019-01-21T14:20:06.785Z,98.90
2019-01-21T14:23:09.897Z,98.60
2019-01-21T14:26:25.437Z,98.20
2019-01-21T14:29:25.625Z,97.10
2019-01-21T14:32:46.355Z,96.80
2019-01-21T14:36:01.337Z,98.30
2019-01-21T14:39:18.454Z,99.90
2019-01-21T14:42:14.619Z,99.90
2019-01-21T14:45:41.031Z,99.90
2019-01-21T14:49:06.057Z,98.50
2019-01-21T14:52:26.377Z,99.40
2019-01-21T14:55:31.924Z,97.20
2019-01-21T14:58:43.889Z,98.00
2019-01-21T15:02:03.077Z,97.50
2019-01-21T15:05:02.229Z,97.50
2019-01-21T15:07:45.420Z,97.80
2019-01-21T15:11:03.608Z,99.90
2019-01-21T15:14:18.634Z,98.70
2019-01-21T15:17:15.925Z,97.20
2019-01-21T15:20:16.754Z,97.50
2019-01-21T15:23:10.506Z,96.90
2019-01-21T15:26:24.817Z,98.20
2019-01-21T15:29:32.112Z,97.60
2019-01-21T15:32:45.486Z,98.00
2019-01-21T15:35:43.090Z,98.60
2019-01-21T15:38:56.356Z,99.60
2019-01-21T15:41:51.610Z,99.90
2019-01-21T15:44:55.096Z,98.70
2019-01-21T15:47:49.404Z,98.80
2019-01-21T15:50:33.486Z,99.30
2019-01-21T15:54:01.662Z,99.60
2019-01-21T15:56:54.090Z,99.20
2019-01-21T16:00:01.619Z,99.90
2019-01-21T16:03:10.923Z,99.80
2019-01-21T16:05:57.647Z,99.90
2019-01-21T16:08:52.533Z,99.90
2019-01-21T16:11:59.523Z,99.90
2019-01-21T16:14:53.929Z,99.90
2019-01-21T16:18:15.040Z,99.90
2019-01-21T16:21:26.499Z,99.90
2019-01-21T16:24:48.744Z,99.90
2019-01-21T16:27:49.801Z,99.90
2019-01-21T16:30:46.569Z,99.90
2019-01-21T16:33:50.097Z,99.90
2019-01-21T16:36:47.713Z,99.90
2019-01-21T16:40:06.229Z,99.90
2019-01-21T16:42:37.998Z,99.90
2019-01-21T16:45:09.783Z,99.90
2019-01-21T16:47:41.481Z,99.90
2019-01-21T16:50:13.355Z,99.90
2019-01-21T16:52:45.212Z,99.90
2019-01-21T16:55:16.941Z,99.90
2019-01-21T16:57:48.701Z,99.90
2019-01-21T17:00:20.405Z,99.90
2019-01-21T17:02:52.285Z,99.90
2019-01-21T17:05:24.072Z,99.90
2019-01-21T17:07:55.781Z,99.90
2019-01-21T17:10:27.557Z,99.90
2019-01-21T17:12:59.386Z,99.90
2019-01-21T17:15:31.193Z,99.90
2019-01-21T17:18:18.867Z,99.90
2019-01-21T17:20:50.571Z,99.90
2019-01-21T17:23:22.407Z,99.90
2019-01-21T17:25:54.102Z,99.90
2019-01-21T17:28:25.810Z,99.90
2019-01-21T17:30:57.508Z,99.90
2019-01-21T17:33:29.218Z,99.90
2019-01-21T17:36:00.992Z,99.90
2019-01-21T17:38:32.734Z,99.90
2019-01-21T17:41:04.825Z,99.90
2019-01-21T17:43:36.605Z,99.90
2019-01-21T17:46:08.654Z,99.90
2019-01-21T17:48:40.395Z,99.90
2019-01-21T17:51:12.180Z,99.90
2019-01-21T17:53:43.976Z,99.90
2019-01-21T17:56:15.806Z,99.90
2019-01-21T17:58:47.632Z,99.90
2019-01-21T18:01:19.397Z,99.90
2019-01-21T18:03:51.152Z,99.90
2019-01-21T18:06:22.865Z,99.90
2019-01-21T18:08:54.642Z,99.90
2019-01-21T18:11:26.360Z,99.90
2019-01-21T18:13:58.051Z,99.90
2019-01-21T18:16:30.068Z,99.90
2019-01-21T18:19:01.767Z,99.90
2019-01-21T18:21:33.578Z,99.90
2019-01-21T18:24:05.334Z,99.90
2019-01-21T18:26:37.232Z,99.90
2019-01-21T18:29:08.941Z,99.90
2019-01-21T18:31:40.617Z,99.90
2019-01-21T18:34:12.447Z,99.90
2019-01-21T18:36:44.303Z,99.90
2019-01-21T18:39:16.140Z,99.90
2019-01-21T18:41:47.971Z,99.90
2019-01-21T18:44:19.715Z,99.90
2019-01-21T18:46:51.473Z,99.90
2019-01-21T18:49:23.363Z,99.90
2019-01-21T18:52:14.243Z,99.90
2019-01-21T18:54:46.023Z,99.90
2019-01-21T18:57:17.710Z,99.90
2019-01-21T18:59:49.447Z,99.90
2019-01-21T19:02:21.284Z,99.90
2019-01-21T19:04:52.962Z,99.90
2019-01-21T19:07:27.672Z,99.90
2019-01-21T19:09:59.366Z,99.90
2019-01-21T19:12:31.195Z,99.90
2019-01-21T19:15:03.295Z,99.90
2019-01-21T19:17:35.092Z,99.90
2019-01-21T19:20:08.251Z,99.90
2019-01-21T19:22:40.103Z,99.90
2019-01-21T19:25:11.991Z,99.90
2019-01-21T19:27:43.723Z,99.90
2019-01-21T19:30:20.987Z,99.90
2019-01-21T19:32:53.112Z,99.90
2019-01-21T19:35:30.452Z,99.90
2019-01-21T19:38:02.135Z,99.90
2019-01-21T19:40:33.872Z,99.90
2019-01-21T19:43:06.370Z,99.90
2019-01-21T19:45:38.062Z,99.90
2019-01-21T19:48:09.718Z,99.90
2019-01-21T19:50:41.412Z,99.90
2019-01-21T19:53:13.213Z,99.90
2019-01-21T19:55:45.322Z,99.90
2019-01-21T19:58:16.996Z,99.90
2019-01-21T20:00:48.689Z,99.90
2019-01-21T20:03:20.473Z,99.90
2019-01-21T20:05:52.333Z,99.90
2019-01-21T20:08:24.041Z,99.90
2019-01-21T20:10:55.772Z,99.90
2019-01-21T20:13:27.520Z,99.90
2019-01-21T20:15:59.347Z,99.90
2019-01-21T20:18:31.117Z,99.90
2019-01-21T20:21:02.795Z,99.90
2019-01-21T20:23:34.491Z,99.90
2019-01-21T20:26:06.207Z,99.90
2019-01-21T20:28:37.889Z,99.90
2019-01-21T20:31:09.590Z,99.90
2019-01-21T20:33:41.287Z,99.90
2019-01-21T20:36:13.058Z,99.90
2019-01-21T20:38:44.721Z,99.90
2019-01-21T20:41:16.515Z,99.90
2019-01-21T20:43:48.286Z,99.90
2019-01-21T20:46:20.027Z,99.90
2019-01-21T20:48:51.763Z,99.90
2019-01-21T20:51:24.277Z,99.90
2019-01-21T20:53:56.028Z,99.90
2019-01-21T20:56:27.766Z,99.90
2019-01-21T20:58:59.430Z,99.90
2019-01-21T21:01:31.224Z,99.90
2019-01-21T21:04:03.175Z,99.90
2019-01-21T21:06:35.540Z,99.90
2019-01-21T21:09:09.928Z,99.90
2019-01-21T21:11:41.978Z,99.90
2019-01-21T21:14:13.954Z,99.90
2019-01-21T21:16:45.976Z,99.90
2019-01-21T21:19:17.925Z,99.90
2019-01-21T21:21:49.847Z,99.90
2019-01-21T21:24:21.804Z,99.90
2019-01-21T21:26:53.838Z,99.90
2019-01-21T21:29:25.804Z,99.90
2019-01-21T21:31:57.795Z,99.90
2019-01-21T21:34:30.114Z,99.90
2019-01-21T21:37:03.068Z,99.90
2019-01-21T21:39:35.010Z,99.90
2019-01-21T21:42:06.982Z,99.90
2019-01-21T21:44:38.949Z,99.90
2019-01-21T21:47:11.492Z,99.90
2019-01-21T21:49:43.482Z,99.90
2019-01-21T21:52:15.440Z,99.90
2019-01-21T21:54:47.649Z,99.90
2019-01-21T21:57:19.977Z,99.90
2019-01-21T21:59:51.859Z,99.90
2019-01-21T22:02:23.845Z,99.90
2019-01-21T22:04:56.003Z,99.90
2019-01-21T22:07:27.958Z,99.90
2019-01-21T22:09:59.847Z,99.90
2019-01-21T22:12:31.746Z,99.90
2019-01-21T22:15:03.826Z,99.90
2019-01-21T22:17:35.773Z,99.90
2019-01-21T22:20:10.335Z,99.90
2019-01-21T22:22:42.257Z,99.90
2019-01-21T22:25:14.194Z,99.90
2019-01-21T22:27:45.953Z,99.90
2019-01-21T22:30:20.501Z,99.90
2019-01-21T22:32:52.264Z,99.90
2019-01-21T22:35:24.020Z,99.90
2019-01-21T22:37:55.741Z,99.90
2019-01-21T22:40:27.496Z,99.90
2019-01-21T22:42:59.208Z,99.90
2019-01-21T22:45:30.990Z,99.90
2019-01-21T22:48:02.970Z,99.90
2019-01-21T22:50:34.696Z,99.90
2019-01-21T22:53:06.464Z,99.90
2019-01-21T22:55:38.236Z,99.90
2019-01-21T22:58:10.300Z,99.90
2019-01-21T23:01:03.192Z,99.90
2019-01-21T23:03:35.057Z,99.90
2019-01-21T23:06:08.002Z,99.90
2019-01-21T23:08:39.705Z,99.90
2019-01-21T23:11:11.848Z,99.90
2019-01-21T23:13:43.657Z,99.90
2019-01-21T23:16:15.647Z,99.90
2019-01-21T23:18:47.509Z,99.90
2019-01-21T23:21:19.284Z,99.90
2019-01-21T23:23:51.058Z,99.90
2019-01-21T23:26:22.746Z,99.90
2019-01-21T23:28:54.601Z,99.90
2019-01-21T23:31:26.331Z,99.90
2019-01-21T23:33:58.097Z,99.90
2019-01-21T23:36:29.923Z,99.90
2019-01-21T23:39:02.084Z,99.90
2019-01-21T23:41:33.863Z,99.90
2019-01-21T23:44:05.680Z,99.90
2019-01-21T23:46:37.448Z,99.90
2019-01-21T23:49:09.309Z,99.90
2019-01-21T23:51:41.031Z,99.90
2019-01-21T23:54:12.704Z,99.90
2019-01-21T23:56:44.447Z,99.90
2019-01-21T23:59:16.219Z,99.90
